createdAt,value
2023-04-26T00:02:21.981Z,6.13
2023-04-26T00:04:57.974Z,8.10
2023-04-26T00:07:25.670Z,6.00
2023-04-26T00:09:53.203Z,6.03
2023-04-26T00:12:22.018Z,9.25
2023-04-26T00:14:49.606Z,6.50
2023-04-26T00:17:16.993Z,6.45
2023-04-26T00:19:45.212Z,6.35
2023-04-26T00:22:13.152Z,7.93
2023-04-26T00:24:40.636Z,5.30
2023-04-26T00:27:10.362Z,5.97
2023-04-26T00:29:37.773Z,7.53
2023-04-26T00:32:05.637Z,9.65
2023-04-26T00:34:37.813Z,6.50
2023-04-26T00:37:05.700Z,10.77
2023-04-26T00:39:33.149Z,8.90
2023-04-26T00:42:00.565Z,6.40
2023-04-26T00:44:27.936Z,6.10
2023-04-26T00:46:56.040Z,5.97
2023-04-26T00:49:26.417Z,6.82
2023-04-26T00:51:54.153Z,7.05
2023-04-26T00:54:21.987Z,5.75
2023-04-26T00:56:52.174Z,7.22
2023-04-26T00:59:23.363Z,7.03
2023-04-26T01:01:50.867Z,6.15
2023-04-26T01:04:19.255Z,5.80
2023-04-26T01:06:47.276Z,6.63
2023-04-26T01:09:16.169Z,7.55
2023-04-26T01:11:44.676Z,10.15
2023-04-26T01:14:12.333Z,6.78
2023-04-26T01:16:40.954Z,9.85
2023-04-26T01:19:12.819Z,9.75
2023-04-26T01:21:41.557Z,9.50
2023-04-26T01:24:13.259Z,6.55
2023-04-26T01:26:45.659Z,7.72
2023-04-26T01:29:19.591Z,5.97
2023-04-26T01:34:15.763Z,5.60
2023-04-26T01:36:46.575Z,7.15
2023-04-26T01:39:14.034Z,9.43
2023-04-26T01:41:41.371Z,6.80
2023-04-26T01:44:08.819Z,5.93
2023-04-26T01:46:36.307Z,5.28
2023-04-26T01:49:03.823Z,6.28
2023-04-26T01:51:31.382Z,6.40
2023-04-26T01:53:59.801Z,6.05
2023-04-26T01:56:27.269Z,8.52
2023-04-26T01:58:57.671Z,9.32
2023-04-26T02:01:25.659Z,8.85
2023-04-26T02:03:53.276Z,9.32
2023-04-26T02:06:21.625Z,9.15
2023-04-26T02:08:49.686Z,9.48
2023-04-26T02:11:17.282Z,8.32
2023-04-26T02:13:44.734Z,12.70
2023-04-26T02:16:12.238Z,8.30
2023-04-26T02:18:41.684Z,11.30
2023-04-26T02:21:10.652Z,8.90
2023-04-26T02:23:38.402Z,23.52
2023-04-26T02:26:05.982Z,9.18
2023-04-26T02:28:33.406Z,8.18
2023-04-26T02:31:02.767Z,8.63
2023-04-26T02:33:31.312Z,10.65
2023-04-26T02:35:59.170Z,9.60
2023-04-26T02:38:27.331Z,11.80
2023-04-26T02:41:02.803Z,11.00
2023-04-26T02:43:31.027Z,7.25
2023-04-26T02:46:00.911Z,7.95
2023-04-26T02:48:28.738Z,8.73
2023-04-26T02:50:57.129Z,10.77
2023-04-26T02:53:24.621Z,10.38
2023-04-26T02:55:52.022Z,10.48
2023-04-26T02:58:19.578Z,13.93
2023-04-26T03:00:50.157Z,7.82
2023-04-26T03:03:18.046Z,8.25
2023-04-26T03:05:46.560Z,8.05
2023-04-26T03:08:14.650Z,7.03
2023-04-26T03:10:42.127Z,7.72
2023-04-26T03:13:09.545Z,14.23
2023-04-26T03:15:37.082Z,9.52
2023-04-26T03:18:04.682Z,7.72
2023-04-26T03:20:32.522Z,6.60
2023-04-26T03:23:00.242Z,8.95
2023-04-26T03:25:27.686Z,7.65
2023-04-26T03:27:56.605Z,6.88
2023-04-26T03:30:23.996Z,8.57
2023-04-26T03:32:52.381Z,12.40
2023-04-26T03:35:19.782Z,8.00
2023-04-26T03:37:47.415Z,6.80
2023-04-26T03:40:17.104Z,7.22
2023-04-26T03:42:45.928Z,8.85
2023-04-26T03:45:13.357Z,12.70
2023-04-26T03:47:40.740Z,9.70
2023-04-26T03:50:08.919Z,10.20
2023-04-26T03:52:36.343Z,13.88
2023-04-26T03:55:03.949Z,11.02
2023-04-26T03:57:31.732Z,10.90
2023-04-26T03:59:59.351Z,13.70
2023-04-26T04:02:27.090Z,10.90
2023-04-26T04:04:54.817Z,12.85
2023-04-26T04:07:22.793Z,16.52
2023-04-26T04:09:50.205Z,12.95
2023-04-26T04:12:17.615Z,9.63
2023-04-26T04:14:45.557Z,10.07
2023-04-26T04:17:13.052Z,12.52
2023-04-26T04:19:40.575Z,11.30
2023-04-26T04:22:08.237Z,11.55
2023-04-26T04:24:35.766Z,21.27
2023-04-26T04:27:03.663Z,27.40
2023-04-26T04:29:32.840Z,14.70
2023-04-26T04:32:00.453Z,14.45
2023-04-26T04:34:28.603Z,19.50
2023-04-26T04:36:56.066Z,11.73
2023-04-26T04:39:24.048Z,15.73
2023-04-26T04:41:51.655Z,10.65
2023-04-26T04:44:20.704Z,13.02
2023-04-26T04:46:48.443Z,10.57
2023-04-26T04:49:16.082Z,9.52
2023-04-26T04:51:43.662Z,13.95
2023-04-26T04:54:13.108Z,10.25
2023-04-26T04:56:40.557Z,10.52
2023-04-26T04:59:08.744Z,8.95
2023-04-26T05:01:38.507Z,10.48
2023-04-26T05:04:10.414Z,11.20
2023-04-26T05:06:38.662Z,10.25
2023-04-26T05:09:06.065Z,9.02
2023-04-26T05:11:34.199Z,10.82
2023-04-26T05:14:02.688Z,9.82
2023-04-26T05:16:31.104Z,13.48
2023-04-26T05:19:00.534Z,20.63
2023-04-26T05:21:28.169Z,13.68
2023-04-26T05:23:55.701Z,12.02
2023-04-26T05:26:23.098Z,11.73
2023-04-26T05:28:57.800Z,12.45
2023-04-26T05:31:31.592Z,9.68
2023-04-26T05:34:06.630Z,9.52
2023-04-26T05:36:41.051Z,11.55
2023-04-26T05:39:08.647Z,7.70
2023-04-26T05:41:36.318Z,7.82
2023-04-26T05:44:04.144Z,5.40
2023-04-26T05:46:32.481Z,5.18
2023-04-26T05:48:59.942Z,8.52
2023-04-26T05:51:28.787Z,6.60
2023-04-26T05:53:57.366Z,7.53
2023-04-26T05:56:26.165Z,5.57
2023-04-26T05:58:54.159Z,6.40
2023-04-26T06:01:21.876Z,4.50
2023-04-26T06:03:50.888Z,4.88
2023-04-26T06:06:21.628Z,8.70
2023-04-26T06:08:49.930Z,5.22
2023-04-26T06:11:17.732Z,6.53
2023-04-26T06:13:45.701Z,5.05
2023-04-26T06:16:13.278Z,7.78
2023-04-26T06:18:41.224Z,5.75
2023-04-26T06:21:08.920Z,4.78
2023-04-26T06:23:37.468Z,5.72
2023-04-26T06:26:05.258Z,8.85
2023-04-26T06:28:32.961Z,14.35
2023-04-26T06:31:00.855Z,10.18
2023-04-26T06:33:29.542Z,8.35
2023-04-26T06:35:57.569Z,6.97
2023-04-26T06:38:25.339Z,5.65
2023-04-26T06:40:53.100Z,2.88
2023-04-26T06:43:20.981Z,7.88
2023-04-26T06:45:57.562Z,3.15
2023-04-26T06:48:25.524Z,2.65
2023-04-26T06:50:53.344Z,8.55
2023-04-26T06:53:23.059Z,7.53
2023-04-26T06:55:53.151Z,5.07
2023-04-26T06:58:21.375Z,3.58
2023-04-26T07:00:49.151Z,2.58
2023-04-26T07:03:17.165Z,2.78
2023-04-26T07:05:45.073Z,3.70
2023-04-26T07:08:12.935Z,3.40
2023-04-26T07:10:42.505Z,6.93
2023-04-26T07:13:10.215Z,7.90
2023-04-26T07:15:37.891Z,2.05
2023-04-26T07:18:05.605Z,3.83
2023-04-26T07:20:33.441Z,5.82
2023-04-26T07:23:01.220Z,5.10
2023-04-26T07:25:28.906Z,5.88
2023-04-26T07:27:56.572Z,5.43
2023-04-26T07:30:23.960Z,3.70
2023-04-26T07:32:53.248Z,5.55
2023-04-26T07:35:20.974Z,3.22
2023-04-26T07:37:48.430Z,2.75
2023-04-26T07:40:15.928Z,3.33
2023-04-26T07:42:43.485Z,4.80
2023-04-26T07:45:11.529Z,4.90
2023-04-26T07:47:38.987Z,3.17
2023-04-26T07:50:07.086Z,2.78
2023-04-26T07:52:34.618Z,2.88
2023-04-26T07:55:01.976Z,3.72
2023-04-26T07:57:29.345Z,3.90
2023-04-26T07:59:56.852Z,8.48
2023-04-26T08:02:36.722Z,4.88
2023-04-26T08:05:11.492Z,4.85
2023-04-26T08:07:39.798Z,4.55
2023-04-26T08:10:08.244Z,5.13
2023-04-26T08:12:37.252Z,6.88
2023-04-26T08:15:05.829Z,5.10
2023-04-26T08:17:33.263Z,4.32
2023-04-26T08:20:00.736Z,5.65
2023-04-26T08:22:28.519Z,4.60
2023-04-26T08:24:56.399Z,5.22
2023-04-26T08:27:24.148Z,5.30
2023-04-26T08:29:51.846Z,5.68
2023-04-26T08:32:19.554Z,3.70
2023-04-26T08:34:47.314Z,5.47
2023-04-26T08:37:15.255Z,5.10
2023-04-26T08:39:42.920Z,5.93
2023-04-26T08:42:17.549Z,3.65
2023-04-26T08:44:46.495Z,12.02
2023-04-26T08:47:14.144Z,6.50
2023-04-26T08:49:42.686Z,6.93
2023-04-26T08:52:14.738Z,3.08
2023-04-26T08:54:42.531Z,3.22
2023-04-26T08:57:10.377Z,4.63
2023-04-26T08:59:38.663Z,7.03
2023-04-26T09:02:07.332Z,5.15
2023-04-26T09:04:36.260Z,4.93
2023-04-26T09:07:05.128Z,8.80
2023-04-26T09:09:39.154Z,4.38
2023-04-26T09:12:07.322Z,4.25
2023-04-26T09:14:35.321Z,4.93
2023-04-26T09:17:03.246Z,4.05
2023-04-26T09:19:42.750Z,6.45
2023-04-26T09:22:10.666Z,5.45
2023-04-26T09:24:48.402Z,5.65
2023-04-26T09:27:16.716Z,4.63
2023-04-26T09:29:59.336Z,5.50
2023-04-26T09:32:27.687Z,5.70
2023-04-26T09:34:55.718Z,6.45
2023-04-26T09:37:23.450Z,10.27
2023-04-26T09:39:51.566Z,5.78
2023-04-26T09:42:19.848Z,4.45
2023-04-26T09:44:47.559Z,4.65
2023-04-26T09:47:15.257Z,5.15
2023-04-26T09:49:48.756Z,3.67
2023-04-26T09:52:17.178Z,5.82
2023-04-26T09:54:49.012Z,5.53
2023-04-26T09:57:17.606Z,9.70
2023-04-26T09:59:46.933Z,3.78
2023-04-26T10:02:20.157Z,5.28
2023-04-26T10:04:49.548Z,4.70
2023-04-26T10:07:18.904Z,5.57
2023-04-26T10:09:47.046Z,6.35
2023-04-26T10:12:16.173Z,5.85
2023-04-26T10:14:44.634Z,7.20
2023-04-26T10:17:12.250Z,7.00
2023-04-26T10:19:43.901Z,7.30
2023-04-26T10:22:15.554Z,8.20
2023-04-26T10:24:44.276Z,9.90
2023-04-26T10:27:11.955Z,9.10
2023-04-26T10:29:55.052Z,5.80
2023-04-26T10:32:22.984Z,7.43
2023-04-26T10:35:09.485Z,6.15
2023-04-26T10:37:37.747Z,6.40
2023-04-26T10:40:41.052Z,5.82
2023-04-26T10:43:19.466Z,8.35
2023-04-26T10:45:47.876Z,5.50
2023-04-26T10:48:18.547Z,7.07
2023-04-26T10:51:01.473Z,6.72
2023-04-26T10:53:30.291Z,6.80
2023-04-26T10:55:58.306Z,7.15
2023-04-26T10:58:29.044Z,9.00
2023-04-26T11:01:07.159Z,10.98
2023-04-26T11:03:35.382Z,8.57
2023-04-26T11:06:07.163Z,9.73
2023-04-26T11:08:36.524Z,7.57
2023-04-26T11:11:04.777Z,7.03
2023-04-26T11:13:44.933Z,7.53
2023-04-26T11:16:13.683Z,7.47
2023-04-26T11:18:42.417Z,7.25
2023-04-26T11:21:10.479Z,6.75
2023-04-26T11:23:38.313Z,6.72
2023-04-26T11:26:08.244Z,5.93
2023-04-26T11:28:36.860Z,9.85
2023-04-26T11:31:05.213Z,8.38
2023-04-26T11:33:34.439Z,6.57
2023-04-26T11:36:02.801Z,5.20
2023-04-26T11:38:30.650Z,5.10
2023-04-26T11:40:58.345Z,6.82
2023-04-26T11:43:39.060Z,6.05
2023-04-26T11:46:07.491Z,6.70
2023-04-26T11:48:36.247Z,8.63
2023-04-26T11:51:04.967Z,7.60
2023-04-26T11:53:42.599Z,5.38
2023-04-26T11:56:16.913Z,4.50
2023-04-26T11:58:45.575Z,7.10
2023-04-26T12:01:13.442Z,4.28
2023-04-26T12:03:41.374Z,7.43
2023-04-26T12:06:09.348Z,8.25
2023-04-26T12:08:37.091Z,7.00
2023-04-26T12:11:04.847Z,6.22
2023-04-26T12:13:33.022Z,8.65
2023-04-26T12:16:00.787Z,7.78
2023-04-26T12:18:32.695Z,10.88
2023-04-26T12:21:00.498Z,9.13
2023-04-26T12:23:28.407Z,6.78
2023-04-26T12:25:57.326Z,7.90
2023-04-26T12:28:25.503Z,7.88
2023-04-26T12:30:53.414Z,8.40
2023-04-26T12:33:23.111Z,8.80
2023-04-26T12:35:51.182Z,7.35
2023-04-26T12:38:19.866Z,7.95
2023-04-26T12:40:47.580Z,9.80
2023-04-26T12:43:16.854Z,9.23
2023-04-26T12:45:44.662Z,6.97
2023-04-26T12:48:12.947Z,7.65
2023-04-26T12:50:40.835Z,6.55
2023-04-26T12:53:08.537Z,6.25
2023-04-26T12:55:36.222Z,7.18
2023-04-26T12:58:03.937Z,5.85
2023-04-26T13:00:31.674Z,6.07
2023-04-26T13:02:59.470Z,5.53
2023-04-26T13:05:28.705Z,4.10
2023-04-26T13:07:56.456Z,4.97
2023-04-26T13:10:24.185Z,5.70
2023-04-26T13:12:53.870Z,7.07
2023-04-26T13:15:21.798Z,6.32
2023-04-26T13:17:49.889Z,6.82
2023-04-26T13:20:17.643Z,5.95
2023-04-26T13:22:45.313Z,6.00
2023-04-26T13:25:15.661Z,7.07
2023-04-26T13:27:43.422Z,5.95
2023-04-26T13:30:11.594Z,6.07
2023-04-26T13:32:39.430Z,3.83
2023-04-26T13:35:07.508Z,5.00
2023-04-26T13:37:35.507Z,3.80
2023-04-26T13:40:04.390Z,4.65
2023-04-26T13:42:32.585Z,2.42
2023-04-26T13:45:01.329Z,3.22
2023-04-26T13:47:29.020Z,3.95
2023-04-26T13:49:56.693Z,4.07
2023-04-26T13:52:24.397Z,2.45
2023-04-26T13:54:53.081Z,4.03
2023-04-26T13:57:21.625Z,5.13
2023-04-26T13:59:49.379Z,2.47
2023-04-26T14:02:17.291Z,4.70
2023-04-26T14:04:45.482Z,3.15
2023-04-26T14:07:13.265Z,1.52
2023-04-26T14:09:41.494Z,4.00
2023-04-26T14:12:10.305Z,3.55
2023-04-26T14:14:38.023Z,3.38
2023-04-26T14:17:05.736Z,2.90
2023-04-26T14:19:33.463Z,3.50
2023-04-26T14:22:01.226Z,4.78
2023-04-26T14:24:28.980Z,6.38
2023-04-26T14:26:58.359Z,3.72
2023-04-26T14:29:26.402Z,2.72
2023-04-26T14:31:54.116Z,2.70
2023-04-26T14:34:22.841Z,4.35
2023-04-26T14:36:50.646Z,2.20
2023-04-26T14:39:18.354Z,3.80
2023-04-26T14:41:46.363Z,2.13
2023-04-26T14:44:14.091Z,2.72
2023-04-26T14:46:41.982Z,1.92
2023-04-26T14:49:09.677Z,4.35
2023-04-26T14:51:37.334Z,2.65
2023-04-26T14:54:05.061Z,2.90
2023-04-26T14:56:33.918Z,4.57
2023-04-26T14:59:02.509Z,2.63
2023-04-26T15:01:30.860Z,4.20
2023-04-26T15:04:00.561Z,2.30
2023-04-26T15:06:30.778Z,2.50
2023-04-26T15:08:58.694Z,2.42
2023-04-26T15:11:26.512Z,2.90
2023-04-26T15:13:54.263Z,6.45
2023-04-26T15:16:22.046Z,3.42
2023-04-26T15:18:49.781Z,3.33
2023-04-26T15:21:18.071Z,5.00
2023-04-26T15:23:45.928Z,1.58
2023-04-26T15:26:13.611Z,2.15
2023-04-26T15:28:41.343Z,1.67
2023-04-26T15:31:10.013Z,2.15
2023-04-26T15:33:37.830Z,3.63
2023-04-26T15:36:05.706Z,2.22
2023-04-26T15:38:36.236Z,3.40
2023-04-26T15:41:04.387Z,3.55
2023-04-26T15:43:32.090Z,3.90
2023-04-26T15:45:59.967Z,6.53
2023-04-26T15:48:27.775Z,2.63
2023-04-26T15:50:56.804Z,4.45
2023-04-26T15:53:24.846Z,2.67
2023-04-26T15:55:52.827Z,2.70
2023-04-26T15:58:20.620Z,2.78
2023-04-26T16:00:48.308Z,2.60
2023-04-26T16:03:16.992Z,3.42
2023-04-26T16:05:45.053Z,2.78
2023-04-26T16:08:12.944Z,4.85
2023-04-26T16:10:40.684Z,6.75
2023-04-26T16:13:08.353Z,6.50
2023-04-26T16:15:36.479Z,12.20
2023-04-26T16:18:04.214Z,3.35
2023-04-26T16:20:31.974Z,3.13
2023-04-26T16:22:59.694Z,3.45
2023-04-26T16:25:27.464Z,4.70
2023-04-26T16:27:55.149Z,5.88
2023-04-26T16:30:22.782Z,4.90
2023-04-26T16:32:50.720Z,6.60
2023-04-26T16:35:18.509Z,4.25
2023-04-26T16:37:46.606Z,7.75
2023-04-26T16:40:14.615Z,7.78
2023-04-26T16:42:43.469Z,5.22
2023-04-26T16:45:14.551Z,8.68
2023-04-26T16:47:43.951Z,4.78
2023-04-26T16:50:11.751Z,6.75
2023-04-26T16:52:39.427Z,6.80
2023-04-26T16:55:08.675Z,7.25
2023-04-26T16:57:36.379Z,15.90
2023-04-26T17:00:07.562Z,19.60
2023-04-26T17:02:36.433Z,10.00
2023-04-26T17:05:04.402Z,8.68
2023-04-26T17:07:32.206Z,7.25
2023-04-26T17:09:59.911Z,9.43
2023-04-26T17:12:27.676Z,6.28
2023-04-26T17:14:55.296Z,7.60
2023-04-26T17:17:23.380Z,6.50
2023-04-26T17:19:51.246Z,5.85
2023-04-26T17:22:19.173Z,5.53
2023-04-26T17:24:46.865Z,6.95
2023-04-26T17:27:14.517Z,5.25
2023-04-26T17:29:42.491Z,7.18
2023-04-26T17:32:10.393Z,8.82
2023-04-26T17:34:38.826Z,5.28
2023-04-26T17:37:06.761Z,5.85
2023-04-26T17:39:34.424Z,7.03
2023-04-26T17:42:03.236Z,4.95
2023-04-26T17:44:31.056Z,3.20
2023-04-26T17:46:58.721Z,2.40
2023-04-26T17:49:26.728Z,5.88
2023-04-26T17:51:54.382Z,2.60
2023-04-26T17:54:22.325Z,3.72
2023-04-26T17:56:50.389Z,3.53
2023-04-26T17:59:18.013Z,4.32
2023-04-26T18:01:46.045Z,3.10
2023-04-26T18:04:14.054Z,2.75
2023-04-26T18:06:41.986Z,5.03
2023-04-26T18:09:10.619Z,3.30
2023-04-26T18:11:38.289Z,5.90
2023-04-26T18:14:06.127Z,6.75
2023-04-26T18:16:33.925Z,5.82
2023-04-26T18:19:01.662Z,11.85
2023-04-26T18:21:29.390Z,7.63
2023-04-26T18:23:57.152Z,11.85
2023-04-26T18:26:24.810Z,6.55
2023-04-26T18:28:52.701Z,7.70
2023-04-26T18:31:22.046Z,11.45
2023-04-26T18:33:50.122Z,7.15
2023-04-26T18:36:17.864Z,10.15
2023-04-26T18:38:45.730Z,6.75
2023-04-26T18:41:13.434Z,9.15
2023-04-26T18:43:41.122Z,8.60
2023-04-26T18:46:08.812Z,6.82
2023-04-26T18:48:36.552Z,5.53
2023-04-26T18:51:03.949Z,4.72
2023-04-26T18:53:31.588Z,3.80
2023-04-26T18:55:59.027Z,5.88
2023-04-26T18:58:26.476Z,4.35
2023-04-26T19:00:53.855Z,4.88
2023-04-26T19:03:21.713Z,6.93
2023-04-26T19:05:49.401Z,6.80
2023-04-26T19:08:17.584Z,4.18
2023-04-26T19:10:45.493Z,4.05
2023-04-26T19:13:12.872Z,7.70
2023-04-26T19:15:40.338Z,6.35
2023-04-26T19:18:07.856Z,6.40
2023-04-26T19:20:35.305Z,8.05
2023-04-26T19:23:02.719Z,7.07
2023-04-26T19:25:30.551Z,3.53
2023-04-26T19:27:58.149Z,6.75
2023-04-26T19:30:25.725Z,3.70
2023-04-26T19:32:53.191Z,7.38
2023-04-26T19:35:20.769Z,5.25
2023-04-26T19:37:48.246Z,4.63
2023-04-26T19:40:15.810Z,4.88
2023-04-26T19:42:43.359Z,9.75
2023-04-26T19:45:11.340Z,6.25
2023-04-26T19:47:41.887Z,5.50
2023-04-26T19:50:09.724Z,4.60
2023-04-26T19:52:37.105Z,6.78
2023-04-26T19:55:04.756Z,5.90
2023-04-26T19:57:32.498Z,6.78
2023-04-26T19:59:59.870Z,11.35
2023-04-26T20:02:27.455Z,9.60
2023-04-26T20:04:54.890Z,11.43
2023-04-26T20:07:22.391Z,5.45
2023-04-26T20:09:50.131Z,4.78
2023-04-26T20:12:17.804Z,5.57
2023-04-26T20:14:45.205Z,5.85
2023-04-26T20:17:12.574Z,6.93
2023-04-26T20:19:39.998Z,7.00
2023-04-26T20:22:07.633Z,4.57
2023-04-26T20:24:34.989Z,4.70
2023-04-26T20:27:02.361Z,5.78
2023-04-26T20:29:29.754Z,7.60
2023-04-26T20:31:57.140Z,5.97
2023-04-26T20:34:24.570Z,7.60
2023-04-26T20:36:52.286Z,13.20
2023-04-26T20:39:21.821Z,5.45
2023-04-26T20:41:49.263Z,5.55
2023-04-26T20:44:16.733Z,4.55
2023-04-26T20:46:44.117Z,9.20
2023-04-26T20:49:11.703Z,3.90
2023-04-26T20:51:39.106Z,6.80
2023-04-26T20:54:07.581Z,6.22
2023-04-26T20:56:34.969Z,6.82
2023-04-26T20:59:02.517Z,5.10
2023-04-26T21:01:30.629Z,7.25
2023-04-26T21:03:58.259Z,8.68
2023-04-26T21:06:25.969Z,5.50
2023-04-26T21:08:53.772Z,6.43
2023-04-26T21:11:21.314Z,6.95
2023-04-26T21:13:49.373Z,6.55
2023-04-26T21:16:16.829Z,9.82
2023-04-26T21:18:44.311Z,5.82
2023-04-26T21:21:11.732Z,8.65
2023-04-26T21:23:39.144Z,6.03
2023-04-26T21:26:06.674Z,6.85
2023-04-26T21:28:34.063Z,4.93
2023-04-26T21:31:06.182Z,8.18
2023-04-26T21:36:01.284Z,5.13
2023-04-26T21:38:28.671Z,4.70
2023-04-26T21:40:56.083Z,5.35
2023-04-26T21:43:25.014Z,8.95
2023-04-26T21:45:55.379Z,11.93
2023-04-26T21:48:22.816Z,6.60
2023-04-26T21:50:50.959Z,6.70
2023-04-26T21:53:18.812Z,7.90
2023-04-26T21:55:52.576Z,8.68
2023-04-26T21:58:21.026Z,4.97
2023-04-26T22:01:38.641Z,5.70
2023-04-26T22:04:06.319Z,6.78
2023-04-26T22:06:33.850Z,7.28
2023-04-26T22:09:01.458Z,5.40
2023-04-26T22:11:29.026Z,6.10
2023-04-26T22:13:56.512Z,9.43
2023-04-26T22:16:23.952Z,5.80
2023-04-26T22:18:51.388Z,5.70
2023-04-26T22:21:18.782Z,6.05
2023-04-26T22:23:46.458Z,6.05
2023-04-26T22:26:13.973Z,6.10
2023-04-26T22:28:41.554Z,8.30
2023-04-26T22:31:08.919Z,5.80
2023-04-26T22:33:36.720Z,6.30
2023-04-26T22:36:04.458Z,5.20
2023-04-26T22:38:32.064Z,6.10
2023-04-26T22:40:59.506Z,8.02
2023-04-26T22:43:27.004Z,5.20
2023-04-26T22:45:54.407Z,4.20
2023-04-26T22:48:21.769Z,4.82
2023-04-26T22:50:51.946Z,4.25
2023-04-26T22:53:19.384Z,5.65
2023-04-26T22:55:46.801Z,7.50
2023-04-26T22:58:14.252Z,5.47
2023-04-26T23:00:41.653Z,4.55
2023-04-26T23:03:09.142Z,4.20
2023-04-26T23:05:37.174Z,4.85
2023-04-26T23:08:05.131Z,6.05
2023-04-26T23:10:32.498Z,4.05
2023-04-26T23:13:00.404Z,4.95
2023-04-26T23:15:27.853Z,7.15
2023-04-26T23:17:55.302Z,4.72
2023-04-26T23:20:22.806Z,5.90
2023-04-26T23:22:50.194Z,3.95
2023-04-26T23:25:19.863Z,7.82
2023-04-26T23:27:47.358Z,3.88
2023-04-26T23:30:15.301Z,7.75
2023-04-26T23:32:42.779Z,3.75
2023-04-26T23:35:10.540Z,4.60
2023-04-26T23:37:37.950Z,4.97
2023-04-26T23:40:06.680Z,5.55
2023-04-26T23:42:34.115Z,8.27
2023-04-26T23:45:01.582Z,6.38
2023-04-26T23:47:30.863Z,3.85
2023-04-26T23:49:58.477Z,4.68
2023-04-26T23:52:25.859Z,3.70
2023-04-26T23:54:53.407Z,5.50
2023-04-26T23:57:21.005Z,4.70
2023-04-26T23:59:48.400Z,3.45
